TAF and METAR

METAR for Inca Manco Capac Airport

SPJL 232300Z 08006KT CAVOK 11/01 Q1031 RMK PP000
Report created 24. jun 01:00
wind 6 knots from E (080°) Clear sky Temperature 11° with dewpoint at 1° (Humidity 50.08%) Pressure 1031 hPa

TAF for Inca Manco Capac Airport

SPJL 231100Z 2312/2412 00000KT 9999 SCT010 SCT080 TX16/2319Z TNM04/2411Z BECMG 2315/2317 10010KT BECMG 2323/2401 00000KT
Report created 23. jun 13:00

between 23. jun 14:00 - 24. jun 14:00

wind 0 knots from N (000°) visibility > 10km scattered clouds (~50% cover) at 1000 feet scattered clouds (~50% cover) at 8000 feet Max temperature 16° expected today at around 21 o'clock Min temperature -04° expected today at around 13 o'clock

becoming between 23. jun 17:00 - 23. jun 19:00

wind 10 knots from E (100°)

becoming between 24. jun 01:00 - 24. jun 03:00

wind 0 knots from N (000°)